createdAt,value
2019-02-16T00:00:49.746Z,9.73
2019-02-16T00:02:53.616Z,10.90
2019-02-16T00:04:57.481Z,10.63
2019-02-16T00:07:01.420Z,9.77
2019-02-16T00:09:05.567Z,11.83
2019-02-16T00:11:09.515Z,10.57
2019-02-16T00:13:13.400Z,11.27
2019-02-16T00:15:17.271Z,10.53
2019-02-16T00:17:21.179Z,11.33
2019-02-16T00:19:25.033Z,14.00
2019-02-16T00:21:28.966Z,11.27
2019-02-16T00:23:32.848Z,8.87
2019-02-16T00:25:36.759Z,10.73
2019-02-16T00:27:40.698Z,14.07
2019-02-16T00:29:44.576Z,13.07
2019-02-16T00:31:48.460Z,12.20
2019-02-16T00:33:52.374Z,9.87
2019-02-16T00:35:56.235Z,9.63
2019-02-16T00:38:00.145Z,10.80
2019-02-16T00:40:06.509Z,10.83
2019-02-16T00:42:10.380Z,13.73
2019-02-16T00:44:14.296Z,10.30
2019-02-16T00:46:18.151Z,9.73
2019-02-16T00:48:22.060Z,11.90
2019-02-16T00:50:25.962Z,9.50
2019-02-16T00:52:29.824Z,10.57
2019-02-16T00:54:33.711Z,8.93
2019-02-16T00:56:37.607Z,9.37
2019-02-16T00:58:41.489Z,11.17
2019-02-16T01:00:45.451Z,8.17
2019-02-16T01:02:49.332Z,11.83
2019-02-16T01:04:53.173Z,11.20
2019-02-16T01:06:57.083Z,15.03
2019-02-16T01:09:00.937Z,10.93
2019-02-16T01:11:04.807Z,12.83
2019-02-16T01:13:08.694Z,8.37
2019-02-16T01:15:12.560Z,10.30
2019-02-16T01:17:16.439Z,9.53
2019-02-16T01:19:20.285Z,10.87
2019-02-16T01:21:24.147Z,11.17
2019-02-16T01:23:28.083Z,9.03
2019-02-16T01:25:31.929Z,11.00
2019-02-16T01:27:35.944Z,8.37
2019-02-16T01:29:39.778Z,8.47
2019-02-16T01:31:43.696Z,7.73
2019-02-16T01:33:47.576Z,8.17
2019-02-16T01:35:51.441Z,8.27
2019-02-16T01:37:55.301Z,9.13
2019-02-16T01:39:59.220Z,7.63
2019-02-16T01:42:03.069Z,8.93
2019-02-16T01:44:07.040Z,7.87
2019-02-16T01:46:10.862Z,6.90
2019-02-16T01:48:14.762Z,6.53
2019-02-16T01:50:18.660Z,6.30
2019-02-16T01:52:22.569Z,7.90
2019-02-16T01:54:26.425Z,5.07
2019-02-16T01:56:30.337Z,5.43
2019-02-16T01:58:34.330Z,6.63
2019-02-16T02:00:38.183Z,6.53
2019-02-16T02:02:43.470Z,5.70
2019-02-16T02:04:47.444Z,5.13
2019-02-16T02:06:51.437Z,4.93
2019-02-16T02:08:55.353Z,7.47
2019-02-16T02:10:59.208Z,6.87
2019-02-16T02:13:03.165Z,6.10
2019-02-16T02:15:09.365Z,6.47
2019-02-16T02:17:13.265Z,5.63
2019-02-16T02:19:17.153Z,5.43
2019-02-16T02:21:21.059Z,7.37
2019-02-16T02:23:24.928Z,5.60
2019-02-16T02:25:28.840Z,5.10
2019-02-16T02:27:32.680Z,5.67
2019-02-16T02:29:36.566Z,6.47
2019-02-16T02:31:40.435Z,5.70
2019-02-16T02:33:44.410Z,4.27
2019-02-16T02:35:48.247Z,7.00
2019-02-16T02:37:52.113Z,5.37
2019-02-16T02:39:56.048Z,7.40
2019-02-16T02:41:59.911Z,8.77
2019-02-16T02:44:04.760Z,4.37
2019-02-16T02:46:15.459Z,5.40
2019-02-16T02:48:25.667Z,5.97
2019-02-16T02:50:35.158Z,7.67
2019-02-16T02:52:39.528Z,5.90
2019-02-16T02:54:43.436Z,5.40
2019-02-16T02:56:47.594Z,4.50
2019-02-16T02:58:51.487Z,4.63
2019-02-16T03:00:55.553Z,4.63
2019-02-16T03:02:59.425Z,5.13
2019-02-16T03:05:03.417Z,9.23
2019-02-16T03:07:07.650Z,4.63
2019-02-16T03:09:11.844Z,5.47
2019-02-16T03:11:15.892Z,5.10
2019-02-16T03:13:20.166Z,5.80
2019-02-16T03:15:24.322Z,4.30
2019-02-16T03:17:28.316Z,7.00
2019-02-16T03:19:33.221Z,8.97
2019-02-16T03:21:37.059Z,7.23
2019-02-16T03:23:41.045Z,5.67
2019-02-16T03:26:03.139Z,7.60
2019-02-16T03:28:16.102Z,6.57
2019-02-16T03:30:41.315Z,5.70
2019-02-16T03:32:48.646Z,6.67
2019-02-16T03:35:21.307Z,8.50
2019-02-16T03:37:46.353Z,10.20
2019-02-16T03:39:50.731Z,5.70
2019-02-16T03:41:54.833Z,6.83
2019-02-16T03:43:59.221Z,7.07
2019-02-16T03:46:03.438Z,6.27
2019-02-16T03:48:07.348Z,7.80
2019-02-16T03:50:12.047Z,7.23
2019-02-16T03:52:15.998Z,6.33
2019-02-16T03:54:20.064Z,6.70
2019-02-16T03:56:24.210Z,5.50
2019-02-16T03:58:29.440Z,7.60
2019-02-16T04:00:33.359Z,8.37
2019-02-16T04:02:37.380Z,6.63
2019-02-16T04:04:41.760Z,6.80
2019-02-16T04:06:45.897Z,7.53
2019-02-16T04:08:50.062Z,4.70
2019-02-16T04:10:53.916Z,6.57
2019-02-16T04:12:57.842Z,5.93
2019-02-16T04:15:01.952Z,7.33
2019-02-16T04:17:05.915Z,6.73
2019-02-16T04:19:09.809Z,7.57
2019-02-16T04:21:14.005Z,6.53
2019-02-16T04:23:17.897Z,9.77
2019-02-16T04:25:29.429Z,6.67
2019-02-16T04:27:33.573Z,6.67
2019-02-16T04:29:37.995Z,7.97
2019-02-16T04:31:42.473Z,6.63
2019-02-16T04:33:46.461Z,6.13
2019-02-16T04:35:50.782Z,7.80
2019-02-16T04:37:55.041Z,11.80
2019-02-16T04:40:00.889Z,7.10
2019-02-16T04:42:04.736Z,6.07
2019-02-16T04:44:08.768Z,8.03
2019-02-16T04:46:13.158Z,7.57
2019-02-16T04:48:17.551Z,6.53
2019-02-16T04:50:21.511Z,7.23
2019-02-16T04:52:34.249Z,11.17
2019-02-16T04:54:31.492Z,6.37
2019-02-16T04:56:35.409Z,7.97
2019-02-16T04:58:39.607Z,8.40
2019-02-16T05:00:43.854Z,8.73
2019-02-16T05:02:48.312Z,6.70
2019-02-16T05:04:52.205Z,6.83
2019-02-16T05:06:57.107Z,7.93
2019-02-16T05:09:01.003Z,8.40
2019-02-16T05:11:06.326Z,9.90
2019-02-16T05:13:10.463Z,5.17
2019-02-16T05:15:14.549Z,5.37
2019-02-16T05:17:18.382Z,5.63
2019-02-16T05:19:22.278Z,7.43
2019-02-16T05:21:26.147Z,10.63
2019-02-16T05:23:29.989Z,9.47
2019-02-16T05:25:33.885Z,8.50
2019-02-16T05:27:37.915Z,7.37
2019-02-16T05:29:41.790Z,7.63
2019-02-16T05:31:45.650Z,9.20
2019-02-16T05:33:49.556Z,9.17
2019-02-16T05:35:53.449Z,7.03
2019-02-16T05:37:57.370Z,9.87
2019-02-16T05:40:01.267Z,7.90
2019-02-16T05:42:05.127Z,6.40
2019-02-16T05:44:08.993Z,7.53
2019-02-16T05:46:12.942Z,7.33
2019-02-16T05:48:16.842Z,10.97
2019-02-16T05:50:20.693Z,6.50
2019-02-16T05:52:24.602Z,6.60
2019-02-16T05:54:28.472Z,6.57
2019-02-16T05:56:32.323Z,7.83
2019-02-16T05:58:36.215Z,6.43
2019-02-16T06:00:40.088Z,9.87
2019-02-16T06:02:43.977Z,14.37
2019-02-16T06:04:48.195Z,8.20
2019-02-16T06:06:52.113Z,9.43
2019-02-16T06:08:56.035Z,8.27
2019-02-16T06:11:00.009Z,7.47
2019-02-16T06:13:04.006Z,9.07
2019-02-16T06:15:09.380Z,8.73
2019-02-16T06:17:13.279Z,12.87
2019-02-16T06:19:17.169Z,11.30
2019-02-16T06:21:21.468Z,10.00
2019-02-16T06:23:25.533Z,10.50
2019-02-16T06:25:29.428Z,8.73
2019-02-16T06:27:33.306Z,7.80
2019-02-16T06:29:37.329Z,11.10
2019-02-16T06:31:41.174Z,7.57
2019-02-16T06:33:45.079Z,9.43
2019-02-16T06:35:50.574Z,8.13
2019-02-16T06:37:54.442Z,9.63
2019-02-16T06:39:58.353Z,10.20
2019-02-16T06:42:02.268Z,8.77
2019-02-16T06:44:06.153Z,11.27
2019-02-16T06:46:10.061Z,11.20
2019-02-16T06:48:13.937Z,8.60
2019-02-16T06:50:17.811Z,12.27
2019-02-16T06:52:21.720Z,9.20
2019-02-16T06:54:25.557Z,8.70
2019-02-16T06:56:30.986Z,8.90
2019-02-16T06:58:34.874Z,9.73
2019-02-16T07:00:38.772Z,9.60
2019-02-16T07:02:42.818Z,9.27
2019-02-16T07:04:46.658Z,11.13
2019-02-16T07:06:50.527Z,8.60
2019-02-16T07:08:54.446Z,10.83
2019-02-16T07:10:58.314Z,11.77
2019-02-16T07:13:02.172Z,8.83
2019-02-16T07:15:07.662Z,13.40
2019-02-16T07:17:21.821Z,8.10
2019-02-16T07:19:27.290Z,10.57
2019-02-16T07:21:31.179Z,9.47
2019-02-16T07:23:35.031Z,6.67
2019-02-16T07:25:38.968Z,10.53
2019-02-16T07:27:42.823Z,11.40
2019-02-16T07:29:46.686Z,11.90
2019-02-16T07:31:50.593Z,11.10
2019-02-16T07:33:54.496Z,12.27
2019-02-16T07:35:58.443Z,10.43
2019-02-16T07:38:02.276Z,8.07
2019-02-16T07:40:07.462Z,13.40
2019-02-16T07:42:11.374Z,11.70
2019-02-16T07:44:28.866Z,12.10
2019-02-16T07:46:40.165Z,11.67
2019-02-16T07:48:51.373Z,10.83
2019-02-16T07:50:57.069Z,7.00
2019-02-16T07:53:08.792Z,11.23
2019-02-16T07:55:26.177Z,8.93
2019-02-16T07:57:34.671Z,17.07
2019-02-16T07:59:45.854Z,13.47
2019-02-16T08:01:53.982Z,13.63
2019-02-16T08:04:02.282Z,9.30
2019-02-16T08:06:23.999Z,9.10
2019-02-16T08:08:46.027Z,9.33
2019-02-16T08:11:06.534Z,12.23
2019-02-16T08:13:11.968Z,11.30
2019-02-16T08:15:26.459Z,8.30
2019-02-16T08:17:48.381Z,10.37
2019-02-16T08:20:09.160Z,17.07
2019-02-16T08:22:14.614Z,15.50
2019-02-16T08:24:36.488Z,13.07
2019-02-16T08:26:58.255Z,14.10
2019-02-16T08:29:09.667Z,15.83
2019-02-16T08:31:21.103Z,11.60
2019-02-16T08:33:44.766Z,11.00
2019-02-16T08:36:06.710Z,15.07
2019-02-16T08:38:12.236Z,14.40
2019-02-16T08:40:23.438Z,11.20
2019-02-16T08:42:31.625Z,11.07
2019-02-16T08:44:37.075Z,13.47
2019-02-16T08:46:48.518Z,16.47
2019-02-16T08:49:02.720Z,13.00
2019-02-16T08:51:08.189Z,20.40
2019-02-16T08:53:13.719Z,24.43
2019-02-16T08:55:34.480Z,13.77
2019-02-16T08:57:56.351Z,19.37
2019-02-16T09:00:04.733Z,10.83
2019-02-16T09:02:15.944Z,15.43
2019-02-16T09:04:27.259Z,16.27
2019-02-16T09:06:35.698Z,17.57
2019-02-16T09:08:57.526Z,16.57
2019-02-16T09:11:03.019Z,18.03
2019-02-16T09:13:08.445Z,18.20
2019-02-16T09:15:14.034Z,18.03
2019-02-16T09:17:22.186Z,19.33
2019-02-16T09:19:30.621Z,17.97
2019-02-16T09:21:48.488Z,17.77
2019-02-16T09:23:59.108Z,16.17
2019-02-16T09:26:13.396Z,13.00
2019-02-16T09:28:24.666Z,20.43
2019-02-16T09:30:30.117Z,15.90
2019-02-16T09:32:38.337Z,16.77
2019-02-16T09:34:52.513Z,20.00
2019-02-16T09:37:00.969Z,20.37
2019-02-16T09:39:09.750Z,19.73
2019-02-16T09:41:31.668Z,15.30
2019-02-16T09:43:43.244Z,13.57
2019-02-16T09:45:48.728Z,15.10
2019-02-16T09:48:00.481Z,17.97
2019-02-16T09:50:13.235Z,17.77
2019-02-16T09:52:21.682Z,18.10
2019-02-16T09:54:27.186Z,16.87
2019-02-16T09:56:35.190Z,18.60
2019-02-16T09:58:42.603Z,18.87
2019-02-16T10:01:06.311Z,19.33
2019-02-16T10:03:17.531Z,19.67
2019-02-16T10:05:34.873Z,15.87
2019-02-16T10:07:58.538Z,19.83
2019-02-16T10:10:06.712Z,22.47
2019-02-16T10:12:14.871Z,18.53
2019-02-16T10:14:29.606Z,20.93
2019-02-16T10:16:40.853Z,18.97
2019-02-16T10:18:46.355Z,17.30
2019-02-16T10:20:54.836Z,19.13
2019-02-16T10:23:09.277Z,19.33
2019-02-16T10:25:14.955Z,17.97
2019-02-16T10:27:29.425Z,20.60
2019-02-16T10:29:38.022Z,19.93
2019-02-16T10:31:43.470Z,17.70
2019-02-16T10:33:49.205Z,21.17
2019-02-16T10:35:55.475Z,20.37
2019-02-16T10:38:03.754Z,22.23
2019-02-16T10:40:09.261Z,21.30
2019-02-16T10:42:15.156Z,15.13
2019-02-16T10:44:23.606Z,16.77
2019-02-16T10:46:32.224Z,23.43
2019-02-16T10:48:40.066Z,24.00
2019-02-16T10:50:45.487Z,23.77
2019-02-16T10:53:08.702Z,14.27
2019-02-16T10:55:14.500Z,22.93
2019-02-16T10:57:19.957Z,20.63
2019-02-16T10:59:31.555Z,21.10
2019-02-16T11:01:37.023Z,23.03
2019-02-16T11:03:51.183Z,18.53
2019-02-16T11:05:59.241Z,17.30
2019-02-16T11:08:04.719Z,18.37
2019-02-16T11:10:12.007Z,19.43
2019-02-16T11:12:17.443Z,14.50
2019-02-16T11:14:38.125Z,22.97
2019-02-16T11:16:43.587Z,15.73
2019-02-16T11:18:54.627Z,24.27
2019-02-16T11:21:00.072Z,15.50
2019-02-16T11:23:20.763Z,14.93
2019-02-16T11:25:26.254Z,21.23
2019-02-16T11:27:34.627Z,22.20
2019-02-16T11:29:40.070Z,20.03
2019-02-16T11:31:45.585Z,18.33
2019-02-16T11:34:06.042Z,17.17
2019-02-16T11:36:11.507Z,18.90
2019-02-16T11:38:19.397Z,18.40
2019-02-16T11:40:24.874Z,14.53
2019-02-16T11:42:30.509Z,17.73
2019-02-16T11:44:48.123Z,17.57
2019-02-16T11:46:56.417Z,24.40
2019-02-16T11:49:04.660Z,23.00
2019-02-16T11:51:10.107Z,17.63
2019-02-16T11:53:24.348Z,19.37
2019-02-16T11:55:35.830Z,15.50
2019-02-16T11:57:57.223Z,22.17
2019-02-16T12:00:14.963Z,21.70
2019-02-16T12:02:26.455Z,20.33
2019-02-16T12:04:31.920Z,22.13
2019-02-16T12:06:43.150Z,21.20
2019-02-16T12:08:51.500Z,22.13
2019-02-16T12:10:56.962Z,22.20
2019-02-16T12:13:05.455Z,20.37
2019-02-16T12:15:13.729Z,21.00
2019-02-16T12:17:21.958Z,19.37
2019-02-16T12:19:27.424Z,24.20
2019-02-16T12:21:38.591Z,22.83
2019-02-16T12:23:44.035Z,20.13
2019-02-16T12:26:05.998Z,21.30
2019-02-16T12:28:11.510Z,18.87
2019-02-16T12:30:17.025Z,20.13
2019-02-16T12:32:22.545Z,18.13
2019-02-16T12:34:40.206Z,18.67
2019-02-16T12:37:00.738Z,20.63
2019-02-16T12:39:08.073Z,23.00
2019-02-16T12:41:13.519Z,22.97
2019-02-16T12:43:24.750Z,20.27
2019-02-16T12:45:51.196Z,20.23
2019-02-16T12:48:04.796Z,17.70
2019-02-16T12:50:10.279Z,21.23
2019-02-16T12:52:27.761Z,24.50
2019-02-16T12:54:39.394Z,23.23
2019-02-16T12:56:44.827Z,22.77
2019-02-16T12:58:56.326Z,21.63
2019-02-16T13:01:10.719Z,19.13
2019-02-16T13:03:28.019Z,20.87
2019-02-16T13:05:50.089Z,17.27
2019-02-16T13:07:55.561Z,21.60
2019-02-16T13:10:01.046Z,15.53
2019-02-16T13:12:12.267Z,17.07
2019-02-16T13:14:20.815Z,18.63
2019-02-16T13:16:26.229Z,17.87
2019-02-16T13:18:31.657Z,22.40
2019-02-16T13:20:37.175Z,17.90
2019-02-16T13:22:42.609Z,15.57
2019-02-16T13:25:05.159Z,16.27
2019-02-16T13:27:10.691Z,17.07
2019-02-16T13:29:32.734Z,15.53
2019-02-16T13:31:38.232Z,19.57
2019-02-16T13:33:46.188Z,15.93
2019-02-16T13:35:51.654Z,21.27
2019-02-16T13:38:13.611Z,19.00
2019-02-16T13:40:34.114Z,21.10
2019-02-16T13:42:39.589Z,20.10
2019-02-16T13:44:57.280Z,14.93
2019-02-16T13:47:02.762Z,16.43
2019-02-16T13:49:14.147Z,19.70
2019-02-16T13:51:22.283Z,15.80
2019-02-16T13:53:30.335Z,20.47
2019-02-16T13:55:47.930Z,15.73
2019-02-16T13:57:53.431Z,16.40
2019-02-16T14:00:04.878Z,18.20
2019-02-16T14:02:10.364Z,18.27
2019-02-16T14:04:21.801Z,21.63
2019-02-16T14:06:27.274Z,18.27
2019-02-16T14:08:42.013Z,16.87
2019-02-16T14:10:47.534Z,15.97
2019-02-16T14:12:55.752Z,14.90
2019-02-16T14:15:01.175Z,18.60
2019-02-16T14:17:18.716Z,16.63
2019-02-16T14:19:22.565Z,16.23
2019-02-16T14:21:26.477Z,17.63
2019-02-16T14:23:30.398Z,17.23
2019-02-16T14:25:42.688Z,14.20
2019-02-16T14:27:41.372Z,19.80
2019-02-16T14:29:45.250Z,15.83
2019-02-16T14:31:49.098Z,19.27
2019-02-16T14:33:53.018Z,16.47
2019-02-16T14:35:56.883Z,17.70
2019-02-16T14:38:02.387Z,18.93
2019-02-16T14:40:07.610Z,17.43
2019-02-16T14:42:11.606Z,18.43
2019-02-16T14:44:15.482Z,15.93
2019-02-16T14:46:20.825Z,15.93
2019-02-16T14:48:24.729Z,18.97
2019-02-16T14:50:28.670Z,18.87
2019-02-16T14:52:32.581Z,20.13
2019-02-16T14:54:36.465Z,16.23
2019-02-16T14:56:40.356Z,17.43
2019-02-16T14:58:44.237Z,18.80
2019-02-16T15:00:48.171Z,16.13
2019-02-16T15:02:52.034Z,15.70
2019-02-16T15:04:55.964Z,15.97
2019-02-16T15:06:59.931Z,15.60
2019-02-16T15:09:04.887Z,18.50
2019-02-16T15:11:08.768Z,15.47
2019-02-16T15:13:12.658Z,16.70
2019-02-16T15:15:16.534Z,17.03
2019-02-16T15:17:20.463Z,19.60
2019-02-16T15:19:25.704Z,17.63
2019-02-16T15:21:29.815Z,18.17
2019-02-16T15:23:33.768Z,14.80
2019-02-16T15:25:37.658Z,18.93
2019-02-16T15:27:41.531Z,17.40
2019-02-16T15:29:45.435Z,14.37
2019-02-16T15:31:49.353Z,13.97
2019-02-16T15:33:53.266Z,17.23
2019-02-16T15:35:57.173Z,18.50
2019-02-16T15:38:01.637Z,17.50
2019-02-16T15:40:07.746Z,18.73
2019-02-16T15:42:11.632Z,20.17
2019-02-16T15:44:15.537Z,17.93
2019-02-16T15:46:19.435Z,18.17
2019-02-16T15:48:23.293Z,17.40
2019-02-16T15:50:27.262Z,18.57
2019-02-16T15:52:31.190Z,16.90
2019-02-16T15:54:35.072Z,15.20
2019-02-16T15:56:38.977Z,16.60
2019-02-16T15:58:43.002Z,19.23
2019-02-16T16:00:47.060Z,16.67
2019-02-16T16:02:51.977Z,18.93
2019-02-16T16:04:55.902Z,22.90
2019-02-16T16:06:59.832Z,18.80
2019-02-16T16:09:06.485Z,18.00
2019-02-16T16:11:11.940Z,21.80
2019-02-16T16:13:17.366Z,15.67
2019-02-16T16:15:42.287Z,20.57
2019-02-16T16:17:50.971Z,24.43
2019-02-16T16:19:59.551Z,19.80
2019-02-16T16:22:07.666Z,20.07
2019-02-16T16:24:22.142Z,19.33
2019-02-16T16:26:27.672Z,14.50
2019-02-16T16:28:45.348Z,20.00
2019-02-16T16:30:50.801Z,21.53
2019-02-16T16:33:14.054Z,19.00
2019-02-16T16:35:22.516Z,18.27
2019-02-16T16:37:44.431Z,16.00
2019-02-16T16:39:49.878Z,19.90
2019-02-16T16:41:58.318Z,18.87
2019-02-16T16:44:03.763Z,16.13
2019-02-16T16:46:25.782Z,18.30
2019-02-16T16:48:47.539Z,19.90
2019-02-16T16:50:58.989Z,17.07
2019-02-16T16:53:04.514Z,18.50
2019-02-16T16:55:26.114Z,21.43
2019-02-16T16:57:37.182Z,22.17
2019-02-16T16:59:42.677Z,17.30
2019-02-16T17:01:54.214Z,21.23
2019-02-16T17:03:59.778Z,20.23
2019-02-16T17:06:07.942Z,20.00
2019-02-16T17:08:28.674Z,20.97
2019-02-16T17:10:50.354Z,20.70
2019-02-16T17:12:55.812Z,18.10
2019-02-16T17:15:17.714Z,18.17
2019-02-16T17:17:26.079Z,17.37
2019-02-16T17:19:47.688Z,21.60
2019-02-16T17:22:05.359Z,16.77
2019-02-16T17:24:29.206Z,18.77
2019-02-16T17:26:52.668Z,19.43
2019-02-16T17:29:13.165Z,13.33
2019-02-16T17:31:18.626Z,14.97
2019-02-16T17:33:43.255Z,17.43
2019-02-16T17:35:51.617Z,20.10
2019-02-16T17:38:06.248Z,19.13
2019-02-16T17:40:19.392Z,18.70
2019-02-16T17:42:40.449Z,13.07
2019-02-16T17:44:45.950Z,20.70
2019-02-16T17:46:55.763Z,16.90
2019-02-16T17:49:06.828Z,21.50
2019-02-16T17:51:14.744Z,17.70
2019-02-16T17:53:23.436Z,22.47
2019-02-16T17:55:43.936Z,15.53
2019-02-16T17:58:07.472Z,18.70
2019-02-16T18:00:17.470Z,20.10
2019-02-16T18:02:22.941Z,18.80
2019-02-16T18:04:40.391Z,15.67
2019-02-16T18:06:54.782Z,14.90
2019-02-16T18:09:02.729Z,23.67
2019-02-16T18:11:20.471Z,20.17
2019-02-16T18:13:31.819Z,16.73
2019-02-16T18:15:37.279Z,22.10
2019-02-16T18:17:48.529Z,19.40
2019-02-16T18:20:05.981Z,17.43
2019-02-16T18:22:17.411Z,17.10
2019-02-16T18:24:31.894Z,14.07
2019-02-16T18:26:40.118Z,20.33
2019-02-16T18:28:57.284Z,15.43
2019-02-16T18:31:04.739Z,21.77
2019-02-16T18:33:26.709Z,23.70
2019-02-16T18:35:44.131Z,19.77
2019-02-16T18:37:49.563Z,16.97
2019-02-16T18:40:11.672Z,16.13
2019-02-16T18:42:20.391Z,17.10
2019-02-16T18:44:37.790Z,16.27
2019-02-16T18:46:43.323Z,19.40
2019-02-16T18:48:51.573Z,19.30
2019-02-16T18:51:13.337Z,21.53
2019-02-16T18:53:36.800Z,20.73
2019-02-16T18:55:47.750Z,18.60
2019-02-16T18:58:05.604Z,16.97
2019-02-16T19:00:16.002Z,26.17
2019-02-16T19:02:21.515Z,19.23
2019-02-16T19:04:43.321Z,25.30
2019-02-16T19:06:51.524Z,18.20
2019-02-16T19:08:57.017Z,26.13
2019-02-16T19:11:19.005Z,19.50
2019-02-16T19:13:41.051Z,20.70
2019-02-16T19:16:01.577Z,21.77
2019-02-16T19:18:07.018Z,23.77
2019-02-16T19:20:12.559Z,22.07
2019-02-16T19:22:36.319Z,22.40
2019-02-16T19:24:41.815Z,22.37
2019-02-16T19:26:59.065Z,23.07
2019-02-16T19:29:16.429Z,26.57
2019-02-16T19:31:21.866Z,24.43
2019-02-16T19:33:29.782Z,25.27
2019-02-16T19:35:35.278Z,24.93
2019-02-16T19:37:43.739Z,20.03
2019-02-16T19:40:01.159Z,24.53
2019-02-16T19:42:15.828Z,26.23
2019-02-16T19:44:36.349Z,34.07
2019-02-16T19:46:50.595Z,22.53
2019-02-16T19:49:08.365Z,23.57
2019-02-16T19:51:30.466Z,25.93
2019-02-16T19:53:38.962Z,17.43
2019-02-16T19:55:44.385Z,24.83
2019-02-16T19:58:01.522Z,17.87
2019-02-16T20:00:09.927Z,26.53
2019-02-16T20:02:15.424Z,25.33
2019-02-16T20:04:26.907Z,29.57
2019-02-16T20:06:35.084Z,29.17
2019-02-16T20:08:58.915Z,22.47
2019-02-16T20:11:19.161Z,27.87
2019-02-16T20:13:36.893Z,26.83
2019-02-16T20:15:42.334Z,30.03
2019-02-16T20:17:59.639Z,27.60
2019-02-16T20:20:05.393Z,19.30
2019-02-16T20:22:16.792Z,21.13
2019-02-16T20:24:22.298Z,28.77
2019-02-16T20:26:44.150Z,28.33
2019-02-16T20:28:52.373Z,19.63
2019-02-16T20:31:10.136Z,25.67
2019-02-16T20:33:15.634Z,24.83
2019-02-16T20:35:21.106Z,28.87
2019-02-16T20:37:45.043Z,23.73
2019-02-16T20:39:50.488Z,22.87
2019-02-16T20:41:56.061Z,18.03
2019-02-16T20:44:18.035Z,23.07
2019-02-16T20:46:29.471Z,26.93
2019-02-16T20:48:50.083Z,25.80
2019-02-16T20:50:58.528Z,21.37
2019-02-16T20:53:20.291Z,20.67
2019-02-16T20:55:28.508Z,26.57
2019-02-16T20:57:36.742Z,20.13
2019-02-16T20:59:48.100Z,24.23
2019-02-16T21:01:53.548Z,27.93
2019-02-16T21:04:04.552Z,29.60
2019-02-16T21:06:15.750Z,22.60
2019-02-16T21:08:39.375Z,29.40
2019-02-16T21:10:53.757Z,20.83
2019-02-16T21:12:59.181Z,26.10
2019-02-16T21:15:07.577Z,28.67
2019-02-16T21:17:15.917Z,22.80
2019-02-16T21:19:27.520Z,28.67
2019-02-16T21:21:49.194Z,19.03
2019-02-16T21:24:00.362Z,26.20
2019-02-16T21:26:21.091Z,28.47
2019-02-16T21:28:38.433Z,24.53
2019-02-16T21:31:00.082Z,27.03
2019-02-16T21:33:05.527Z,23.27
2019-02-16T21:35:10.959Z,29.20
2019-02-16T21:37:25.434Z,21.87
2019-02-16T21:39:30.871Z,33.93
2019-02-16T21:41:36.397Z,27.77
2019-02-16T21:43:47.601Z,30.37
2019-02-16T21:46:09.250Z,30.23
2019-02-16T21:48:17.720Z,28.27
2019-02-16T21:50:35.002Z,27.13
2019-02-16T21:52:49.054Z,33.83
2019-02-16T21:54:54.470Z,28.53
2019-02-16T21:57:18.210Z,26.53
2019-02-16T21:59:39.971Z,26.57
2019-02-16T22:01:48.629Z,29.97
2019-02-16T22:03:54.394Z,26.93
2019-02-16T22:06:05.666Z,31.93
2019-02-16T22:08:11.087Z,28.13
2019-02-16T22:10:22.556Z,34.27
2019-02-16T22:12:46.249Z,29.17
2019-02-16T22:14:50.146Z,28.37
2019-02-16T22:16:54.026Z,30.13
2019-02-16T22:18:57.962Z,30.93
2019-02-16T22:21:01.875Z,28.67
2019-02-16T22:23:05.733Z,33.27
2019-02-16T22:25:09.614Z,32.90
2019-02-16T22:27:13.537Z,31.53
2019-02-16T22:29:17.495Z,31.63
2019-02-16T22:31:21.345Z,32.93
2019-02-16T22:33:25.292Z,29.27
2019-02-16T22:35:29.164Z,27.20
2019-02-16T22:37:33.071Z,27.83
2019-02-16T22:39:36.984Z,35.17
2019-02-16T22:41:40.897Z,30.13
2019-02-16T22:43:44.769Z,34.33
2019-02-16T22:45:48.670Z,33.33
2019-02-16T22:47:52.554Z,41.20
2019-02-16T22:49:56.441Z,33.10
2019-02-16T22:52:00.305Z,27.23
2019-02-16T22:54:04.281Z,32.33
2019-02-16T22:56:08.140Z,32.03
2019-02-16T22:58:12.029Z,23.07
2019-02-16T23:00:21.718Z,27.40
2019-02-16T23:02:25.577Z,29.07
2019-02-16T23:04:29.478Z,35.67
2019-02-16T23:06:33.351Z,33.33
2019-02-16T23:08:37.216Z,26.17
2019-02-16T23:10:41.160Z,29.27
2019-02-16T23:12:45.029Z,31.67
2019-02-16T23:14:48.944Z,29.40
2019-02-16T23:16:52.860Z,27.70
2019-02-16T23:18:56.907Z,28.67
2019-02-16T23:21:00.776Z,28.70
2019-02-16T23:23:04.635Z,34.43
2019-02-16T23:25:09.327Z,35.00
2019-02-16T23:27:13.227Z,35.40
2019-02-16T23:29:17.086Z,37.37
2019-02-16T23:31:21.961Z,32.80
2019-02-16T23:33:25.815Z,32.90
2019-02-16T23:35:29.679Z,31.70
2019-02-16T23:37:33.567Z,32.90
2019-02-16T23:39:37.468Z,26.00
2019-02-16T23:41:41.396Z,27.77
2019-02-16T23:43:45.259Z,30.10
2019-02-16T23:45:49.164Z,28.03
2019-02-16T23:47:53.051Z,31.30
2019-02-16T23:49:56.953Z,28.50
2019-02-16T23:52:00.911Z,30.50
2019-02-16T23:54:04.765Z,26.50
2019-02-16T23:56:08.610Z,27.00
2019-02-16T23:58:12.495Z,28.07
